sensor_id;sensor_type;location;lat;lon;timestamp;pressure;altitude;pressure_sealevel;temperature;humidity
6853;BME280;3465;42.144;24.722;2023-04-08T00:00:12;145208.34;;;9.16;66.72
6853;BME280;3465;42.144;24.722;2023-04-08T00:02:38;145204.59;;;9.15;66.80
6853;BME280;3465;42.144;24.722;2023-04-08T00:05:04;145215.84;;;9.19;67.09
6853;BME280;3465;42.144;24.722;2023-04-08T00:07:29;145198.31;;;9.12;67.19
6853;BME280;3465;42.144;24.722;2023-04-08T00:09:55;145175.81;;;9.03;67.38
6853;BME280;3465;42.144;24.722;2023-04-08T00:12:21;145173.34;;;9.02;66.61
6853;BME280;3465;42.144;24.722;2023-04-08T00:14:46;145164.56;;;8.99;66.37
6853;BME280;3465;42.144;24.722;2023-04-08T00:17:11;145144.56;;;8.91;66.68
6853;BME280;3465;42.144;24.722;2023-04-08T00:19:37;145145.84;;;8.91;66.64
6853;BME280;3465;42.144;24.722;2023-04-08T00:22:02;145105.81;;;8.75;66.62
6853;BME280;3465;42.144;24.722;2023-04-08T00:24:28;145090.78;;;8.69;66.97
6853;BME280;3465;42.144;24.722;2023-04-08T00:26:53;145125.81;;;8.83;67.35
6853;BME280;3465;42.144;24.722;2023-04-08T00:29:19;145137.06;;;8.88;66.58
6853;BME280;3465;42.144;24.722;2023-04-08T00:31:45;145145.84;;;8.91;67.00
6853;BME280;3465;42.144;24.722;2023-04-08T00:34:11;145144.56;;;8.91;67.16
6853;BME280;3465;42.144;24.722;2023-04-08T00:36:37;145025.81;;;8.43;68.23
6853;BME280;3465;42.144;24.722;2023-04-08T00:39:04;145118.28;;;8.80;69.08
6853;BME280;3465;42.144;24.722;2023-04-08T00:41:32;145095.78;;;8.71;69.61
6853;BME280;3465;42.144;24.722;2023-04-08T00:43:57;145084.56;;;8.66;69.56
6853;BME280;3465;42.144;24.722;2023-04-08T00:46:23;145064.53;;;8.58;70.86
6853;BME280;3465;42.144;24.722;2023-04-08T00:48:48;145053.31;;;8.54;71.23
6853;BME280;3465;42.144;24.722;2023-04-08T00:51:14;145087.03;;;8.67;71.26
6853;BME280;3465;42.144;24.722;2023-04-08T00:53:40;145095.78;;;8.71;71.72
6853;BME280;3465;42.144;24.722;2023-04-08T00:56:05;145052.03;;;8.53;71.86
6853;BME280;3465;42.144;24.722;2023-04-08T00:58:31;145069.56;;;8.60;72.34
6853;BME280;3465;42.144;24.722;2023-04-08T01:01:04;145035.78;;;8.47;73.28
6853;BME280;3465;42.144;24.722;2023-04-08T01:03:56;145048.28;;;8.52;73.76
6853;BME280;3465;42.144;24.722;2023-04-08T01:06:34;145052.03;;;8.53;74.61
6853;BME280;3465;42.144;24.722;2023-04-08T01:09:04;145040.81;;;8.49;78.68
6853;BME280;3465;42.144;24.722;2023-04-08T01:11:31;145045.81;;;8.51;80.51
6853;BME280;3465;42.144;24.722;2023-04-08T01:14:01;145020.81;;;8.41;83.93
6853;BME280;3465;42.144;24.722;2023-04-08T01:16:30;144957.03;;;8.15;85.63
6853;BME280;3465;42.144;24.722;2023-04-08T01:18:56;144993.31;;;8.30;94.12
6853;BME280;3465;42.144;24.722;2023-04-08T01:21:23;144993.31;;;8.30;97.21
6853;BME280;3465;42.144;24.722;2023-04-08T01:26:30;144998.28;;;8.32;99.75
6853;BME280;3465;42.144;24.722;2023-04-08T01:28:58;145010.78;;;8.37;99.74
6853;BME280;3465;42.144;24.722;2023-04-08T01:31:25;144984.56;;;8.26;100.00
6853;BME280;3465;42.144;24.722;2023-04-08T01:33:51;144942.00;;;8.09;100.00
6853;BME280;3465;42.144;24.722;2023-04-08T01:36:19;144949.53;;;8.12;100.00
6853;BME280;3465;42.144;24.722;2023-04-08T01:38:46;144948.25;;;8.12;100.00
6853;BME280;3465;42.144;24.722;2023-04-08T01:41:12;144947.00;;;8.11;100.00
6853;BME280;3465;42.144;24.722;2023-04-08T01:43:42;144972.00;;;8.21;100.00
6853;BME280;3465;42.144;24.722;2023-04-08T01:46:09;144920.78;;;8.01;100.00
6853;BME280;3465;42.144;24.722;2023-04-08T01:48:36;144908.28;;;7.96;100.00
6853;BME280;3465;42.144;24.722;2023-04-08T01:51:03;144925.78;;;8.03;100.00
6853;BME280;3465;42.144;24.722;2023-04-08T01:53:29;144950.75;;;8.13;100.00
6853;BME280;3465;42.144;24.722;2023-04-08T01:55:57;144920.78;;;8.01;100.00
6853;BME280;3465;42.144;24.722;2023-04-08T01:58:30;144915.78;;;7.99;100.00
6853;BME280;3465;42.144;24.722;2023-04-08T02:00:57;144879.53;;;7.84;100.00
6853;BME280;3465;42.144;24.722;2023-04-08T02:03:24;144923.25;;;8.02;100.00
6853;BME280;3465;42.144;24.722;2023-04-08T02:05:52;144903.28;;;7.94;100.00
6853;BME280;3465;42.144;24.722;2023-04-08T02:08:18;144834.56;;;7.66;100.00
6853;BME280;3465;42.144;24.722;2023-04-08T02:10:43;144912.03;;;7.97;100.00
6853;BME280;3465;42.144;24.722;2023-04-08T02:13:09;144913.28;;;7.98;100.00
6853;BME280;3465;42.144;24.722;2023-04-08T02:15:37;144878.28;;;7.84;100.00
6853;BME280;3465;42.144;24.722;2023-04-08T02:18:15;144915.78;;;7.99;100.00
6853;BME280;3465;42.144;24.722;2023-04-08T02:20:47;144854.53;;;7.74;100.00
6853;BME280;3465;42.144;24.722;2023-04-08T02:25:44;144869.56;;;7.80;100.00
6853;BME280;3465;42.144;24.722;2023-04-08T02:28:11;144872.06;;;7.81;100.00
6853;BME280;3465;42.144;24.722;2023-04-08T02:30:41;144873.31;;;7.82;100.00
6853;BME280;3465;42.144;24.722;2023-04-08T02:33:08;144865.81;;;7.79;100.00
6853;BME280;3465;42.144;24.722;2023-04-08T02:35:35;144863.28;;;7.78;100.00
6853;BME280;3465;42.144;24.722;2023-04-08T02:38:01;144833.34;;;7.66;100.00
6853;BME280;3465;42.144;24.722;2023-04-08T02:40:31;144863.28;;;7.78;100.00
6853;BME280;3465;42.144;24.722;2023-04-08T02:42:57;144859.56;;;7.76;100.00
6853;BME280;3465;42.144;24.722;2023-04-08T02:45:43;144880.81;;;7.85;100.00
6853;BME280;3465;42.144;24.722;2023-04-08T02:48:09;144883.28;;;7.86;100.00
6853;BME280;3465;42.144;24.722;2023-04-08T02:50:35;144884.53;;;7.86;100.00
6853;BME280;3465;42.144;24.722;2023-04-08T02:53:00;144883.28;;;7.86;100.00
6853;BME280;3465;42.144;24.722;2023-04-08T02:55:26;144887.03;;;7.87;100.00
6853;BME280;3465;42.144;24.722;2023-04-08T02:57:51;144852.06;;;7.73;100.00
6853;BME280;3465;42.144;24.722;2023-04-08T03:00:16;144888.28;;;7.88;100.00
6853;BME280;3465;42.144;24.722;2023-04-08T03:02:42;144883.28;;;7.86;100.00
6853;BME280;3465;42.144;24.722;2023-04-08T03:05:08;144873.31;;;7.82;100.00
6853;BME280;3465;42.144;24.722;2023-04-08T03:07:34;144867.03;;;7.79;100.00
6853;BME280;3465;42.144;24.722;2023-04-08T03:09:59;144855.81;;;7.75;100.00
6853;BME280;3465;42.144;24.722;2023-04-08T03:12:25;144825.84;;;7.63;100.00
6853;BME280;3465;42.144;24.722;2023-04-08T03:14:53;144829.59;;;7.64;100.00
6853;BME280;3465;42.144;24.722;2023-04-08T03:17:19;144862.03;;;7.77;100.00
6853;BME280;3465;42.144;24.722;2023-04-08T03:19:45;144868.31;;;7.80;100.00
6853;BME280;3465;42.144;24.722;2023-04-08T03:22:12;144862.03;;;7.77;100.00
6853;BME280;3465;42.144;24.722;2023-04-08T03:24:37;144850.78;;;7.73;100.00
6853;BME280;3465;42.144;24.722;2023-04-08T03:27:02;144859.56;;;7.76;100.00
6853;BME280;3465;42.144;24.722;2023-04-08T03:29:28;144838.31;;;7.68;100.00
6853;BME280;3465;42.144;24.722;2023-04-08T03:31:53;144817.09;;;7.59;100.00
6853;BME280;3465;42.144;24.722;2023-04-08T03:34:19;144855.81;;;7.75;100.00
6853;BME280;3465;42.144;24.722;2023-04-08T03:36:44;144853.31;;;7.74;100.00
6853;BME280;3465;42.144;24.722;2023-04-08T03:39:10;144844.56;;;7.70;100.00
6853;BME280;3465;42.144;24.722;2023-04-08T03:41:35;144853.31;;;7.74;100.00
6853;BME280;3465;42.144;24.722;2023-04-08T03:44:01;144847.06;;;7.71;100.00
6853;BME280;3465;42.144;24.722;2023-04-08T03:46:26;144832.06;;;7.65;100.00
6853;BME280;3465;42.144;24.722;2023-04-08T03:48:52;144802.09;;;7.53;100.00
6853;BME280;3465;42.144;24.722;2023-04-08T03:51:17;144822.06;;;7.61;100.00
6853;BME280;3465;42.144;24.722;2023-04-08T03:53:42;144803.34;;;7.54;100.00
6853;BME280;3465;42.144;24.722;2023-04-08T03:56:08;144813.34;;;7.58;100.00
6853;BME280;3465;42.144;24.722;2023-04-08T03:58:33;144758.38;;;7.36;100.00
6853;BME280;3465;42.144;24.722;2023-04-08T04:00:59;144808.34;;;7.56;100.00
6853;BME280;3465;42.144;24.722;2023-04-08T04:03:24;144815.84;;;7.59;100.00
6853;BME280;3465;42.144;24.722;2023-04-08T04:05:50;144838.31;;;7.68;100.00
6853;BME280;3465;42.144;24.722;2023-04-08T04:08:15;144828.34;;;7.64;100.00
6853;BME280;3465;42.144;24.722;2023-04-08T04:10:41;144818.31;;;7.60;100.00
6853;BME280;3465;42.144;24.722;2023-04-08T04:13:08;144812.09;;;7.57;100.00
6853;BME280;3465;42.144;24.722;2023-04-08T04:15:37;144825.84;;;7.63;100.00
6853;BME280;3465;42.144;24.722;2023-04-08T04:18:02;144807.09;;;7.55;100.00
6853;BME280;3465;42.144;24.722;2023-04-08T04:20:28;144818.31;;;7.60;100.00
6853;BME280;3465;42.144;24.722;2023-04-08T04:22:54;144827.06;;;7.63;100.00
6853;BME280;3465;42.144;24.722;2023-04-08T04:25:19;144843.31;;;7.70;100.00
6853;BME280;3465;42.144;24.722;2023-04-08T04:27:45;144843.31;;;7.70;100.00
6853;BME280;3465;42.144;24.722;2023-04-08T04:30:10;144813.34;;;7.58;100.00
6853;BME280;3465;42.144;24.722;2023-04-08T04:32:39;144833.34;;;7.66;100.00
6853;BME280;3465;42.144;24.722;2023-04-08T04:35:05;144844.56;;;7.70;100.00
6853;BME280;3465;42.144;24.722;2023-04-08T04:37:31;144843.31;;;7.70;100.00
6853;BME280;3465;42.144;24.722;2023-04-08T04:39:56;144843.31;;;7.70;100.00
6853;BME280;3465;42.144;24.722;2023-04-08T04:42:21;144837.09;;;7.67;100.00
6853;BME280;3465;42.144;24.722;2023-04-08T04:44:47;144838.31;;;7.68;100.00
6853;BME280;3465;42.144;24.722;2023-04-08T04:47:13;144834.56;;;7.66;100.00
6853;BME280;3465;42.144;24.722;2023-04-08T04:49:40;144848.31;;;7.72;100.00
6853;BME280;3465;42.144;24.722;2023-04-08T04:52:06;144840.84;;;7.69;100.00
6853;BME280;3465;42.144;24.722;2023-04-08T04:54:31;144833.34;;;7.66;100.00
6853;BME280;3465;42.144;24.722;2023-04-08T04:56:57;144877.06;;;7.83;100.00
6853;BME280;3465;42.144;24.722;2023-04-08T04:59:23;144868.31;;;7.80;100.00
6853;BME280;3465;42.144;24.722;2023-04-08T05:01:48;144880.81;;;7.85;100.00
6853;BME280;3465;42.144;24.722;2023-04-08T05:04:13;144919.53;;;8.00;100.00
6853;BME280;3465;42.144;24.722;2023-04-08T05:06:39;144925.78;;;8.03;100.00
6853;BME280;3465;42.144;24.722;2023-04-08T05:09:04;144944.53;;;8.10;100.00
6853;BME280;3465;42.144;24.722;2023-04-08T05:11:30;144943.25;;;8.10;100.00
6853;BME280;3465;42.144;24.722;2023-04-08T05:13:55;144958.25;;;8.16;100.00
6853;BME280;3465;42.144;24.722;2023-04-08T05:16:20;144959.50;;;8.16;100.00
6853;BME280;3465;42.144;24.722;2023-04-08T05:18:46;144920.78;;;8.01;100.00
6853;BME280;3465;42.144;24.722;2023-04-08T05:21:11;144969.53;;;8.20;100.00
6853;BME280;3465;42.144;24.722;2023-04-08T05:23:36;144955.75;;;8.15;100.00
6853;BME280;3465;42.144;24.722;2023-04-08T05:26:02;144953.28;;;8.14;100.00
6853;BME280;3465;42.144;24.722;2023-04-08T05:28:27;144975.81;;;8.23;100.00
6853;BME280;3465;42.144;24.722;2023-04-08T05:30:53;144960.78;;;8.17;100.00
6853;BME280;3465;42.144;24.722;2023-04-08T05:33:18;144983.28;;;8.26;100.00
6853;BME280;3465;42.144;24.722;2023-04-08T05:35:44;144963.25;;;8.18;100.00
6853;BME280;3465;42.144;24.722;2023-04-08T05:38:10;145005.81;;;8.35;100.00
6853;BME280;3465;42.144;24.722;2023-04-08T05:40:35;145014.53;;;8.38;100.00
6853;BME280;3465;42.144;24.722;2023-04-08T05:43:01;145048.28;;;8.52;100.00
6853;BME280;3465;42.144;24.722;2023-04-08T05:45:27;145047.03;;;8.51;100.00
6853;BME280;3465;42.144;24.722;2023-04-08T05:47:53;145087.03;;;8.67;100.00
6853;BME280;3465;42.144;24.722;2023-04-08T05:50:18;145043.28;;;8.50;100.00
6853;BME280;3465;42.144;24.722;2023-04-08T05:52:44;145020.81;;;8.41;100.00
6853;BME280;3465;42.144;24.722;2023-04-08T05:55:11;145030.78;;;8.45;100.00
6853;BME280;3465;42.144;24.722;2023-04-08T05:57:36;145038.28;;;8.48;100.00
6853;BME280;3465;42.144;24.722;2023-04-08T06:00:04;145068.28;;;8.60;100.00
6853;BME280;3465;42.144;24.722;2023-04-08T06:02:29;145090.78;;;8.69;100.00
6853;BME280;3465;42.144;24.722;2023-04-08T06:04:55;145130.78;;;8.85;100.00
6853;BME280;3465;42.144;24.722;2023-04-08T06:07:20;145163.31;;;8.98;100.00
6853;BME280;3465;42.144;24.722;2023-04-08T06:09:45;145208.34;;;9.16;100.00
6853;BME280;3465;42.144;24.722;2023-04-08T06:12:11;145200.84;;;9.13;100.00
6853;BME280;3465;42.144;24.722;2023-04-08T06:14:36;145227.09;;;9.24;100.00
6853;BME280;3465;42.144;24.722;2023-04-08T06:17:01;145260.88;;;9.37;100.00
6853;BME280;3465;42.144;24.722;2023-04-08T06:19:27;145275.88;;;9.43;100.00
6853;BME280;3465;42.144;24.722;2023-04-08T06:21:52;145330.91;;;9.65;100.00
6853;BME280;3465;42.144;24.722;2023-04-08T06:24:23;145335.94;;;9.67;100.00
6853;BME280;3465;42.144;24.722;2023-04-08T06:26:48;145355.97;;;9.75;100.00
6853;BME280;3465;42.144;24.722;2023-04-08T06:29:14;145434.78;;;10.07;100.00
6853;BME280;3465;42.144;24.722;2023-04-08T06:31:39;145541.28;;;10.50;100.00
6853;BME280;3465;42.144;24.722;2023-04-08T06:34:05;145588.88;;;10.69;100.00
6853;BME280;3465;42.144;24.722;2023-04-08T06:36:30;145646.50;;;10.92;100.00
6853;BME280;3465;42.144;24.722;2023-04-08T06:38:56;145642.69;;;10.90;100.00
6853;BME280;3465;42.144;24.722;2023-04-08T06:41:21;145654.00;;;10.95;100.00
6853;BME280;3465;42.144;24.722;2023-04-08T06:43:46;145709.13;;;11.17;100.00
6853;BME280;3465;42.144;24.722;2023-04-08T06:46:12;145734.19;;;11.27;100.00
6853;BME280;3465;42.144;24.722;2023-04-08T06:48:37;145783.03;;;11.46;100.00
6853;BME280;3465;42.144;24.722;2023-04-08T06:51:03;145764.25;;;11.39;100.00
6853;BME280;3465;42.144;24.722;2023-04-08T06:53:28;145854.56;;;11.75;100.00
6853;BME280;3465;42.144;24.722;2023-04-08T06:55:55;145987.47;;;12.28;100.00
6853;BME280;3465;42.144;24.722;2023-04-08T06:58:20;146187.00;;;13.08;97.23
6853;BME280;3465;42.144;24.722;2023-04-08T07:00:46;146266.06;;;13.40;91.52
6853;BME280;3465;42.144;24.722;2023-04-08T07:03:11;146494.66;;;14.31;87.01
6853;BME280;3465;42.144;24.722;2023-04-08T07:05:37;146870.63;;;15.81;79.70
6853;BME280;3465;42.144;24.722;2023-04-08T07:08:04;147176.50;;;17.03;73.15
6853;BME280;3465;42.144;24.722;2023-04-08T07:10:30;147410.84;;;17.96;68.90
6853;BME280;3465;42.144;24.722;2023-04-08T07:12:56;147694.53;;;19.09;64.69
6853;BME280;3465;42.144;24.722;2023-04-08T07:15:21;147862.41;;;19.76;59.60
6853;BME280;3465;42.144;24.722;2023-04-08T07:17:47;148128.84;;;20.82;55.83
6853;BME280;3465;42.144;24.722;2023-04-08T07:20:12;147916.66;;;19.98;56.97
6853;BME280;3465;42.144;24.722;2023-04-08T07:22:38;147587.38;;;18.67;60.84
6853;BME280;3465;42.144;24.722;2023-04-08T07:25:04;147555.84;;;18.54;60.75
6853;BME280;3465;42.144;24.722;2023-04-08T07:27:30;147476.41;;;18.22;63.52
6853;BME280;3465;42.144;24.722;2023-04-08T07:29:55;147673.13;;;19.01;60.32
6853;BME280;3465;42.144;24.722;2023-04-08T07:32:22;147215.53;;;17.18;63.65
6853;BME280;3465;42.144;24.722;2023-04-08T07:34:47;147252.06;;;17.33;64.99
6853;BME280;3465;42.144;24.722;2023-04-08T07:37:13;147335.25;;;17.66;64.07
6853;BME280;3465;42.144;24.722;2023-04-08T07:39:38;147247.00;;;17.31;63.98
6853;BME280;3465;42.144;24.722;2023-04-08T07:42:04;147268.44;;;17.40;64.46
6853;BME280;3465;42.144;24.722;2023-04-08T07:44:29;147476.41;;;18.22;62.46
6853;BME280;3465;42.144;24.722;2023-04-08T07:46:54;147960.91;;;20.15;55.94
6853;BME280;3465;42.144;24.722;2023-04-08T07:49:20;147620.16;;;18.80;57.85
6853;BME280;3465;42.144;24.722;2023-04-08T07:51:45;147710.94;;;19.16;57.57
6853;BME280;3465;42.144;24.722;2023-04-08T07:54:11;147663.00;;;18.97;57.05
6853;BME280;3465;42.144;24.722;2023-04-08T07:56:41;147588.63;;;18.67;56.78
6853;BME280;3465;42.144;24.722;2023-04-08T07:59:09;147652.94;;;18.93;56.45
6853;BME280;3465;42.144;24.722;2023-04-08T08:01:34;147158.84;;;16.96;61.16
6853;BME280;3465;42.144;24.722;2023-04-08T08:04:00;146946.09;;;16.11;65.14
6853;BME280;3465;42.144;24.722;2023-04-08T08:06:25;146973.78;;;16.22;65.67
6853;BME280;3465;42.144;24.722;2023-04-08T08:08:56;147058.13;;;16.56;64.80
6853;BME280;3465;42.144;24.722;2023-04-08T08:11:22;147109.75;;;16.76;65.04
6853;BME280;3465;42.144;24.722;2023-04-08T08:13:47;147230.63;;;17.25;64.52
6853;BME280;3465;42.144;24.722;2023-04-08T08:16:13;147263.38;;;17.38;63.33
6853;BME280;3465;42.144;24.722;2023-04-08T08:18:39;147080.81;;;16.65;65.42
6853;BME280;3465;42.144;24.722;2023-04-08T08:21:05;147002.72;;;16.34;66.42
6853;BME280;3465;42.144;24.722;2023-04-08T08:23:30;147084.59;;;16.66;66.16
6853;BME280;3465;42.144;24.722;2023-04-08T08:26:07;147189.09;;;17.08;64.77
6853;BME280;3465;42.144;24.722;2023-04-08T08:28:37;147182.78;;;17.05;64.72
6853;BME280;3465;42.144;24.722;2023-04-08T08:31:03;147243.22;;;17.30;63.51
6853;BME280;3465;42.144;24.722;2023-04-08T08:33:30;147249.53;;;17.32;62.46
6853;BME280;3465;42.144;24.722;2023-04-08T08:35:56;147174.00;;;17.02;63.46
6853;BME280;3465;42.144;24.722;2023-04-08T08:38:22;147199.16;;;17.12;63.46
6853;BME280;3465;42.144;24.722;2023-04-08T08:40:58;147436.06;;;18.06;61.15
6853;BME280;3465;42.144;24.722;2023-04-08T08:43:25;147830.88;;;19.63;54.94
6853;BME280;3465;42.144;24.722;2023-04-08T08:45:51;147626.44;;;18.82;57.15
6853;BME280;3465;42.144;24.722;2023-04-08T08:48:16;147612.59;;;18.77;58.83
6853;BME280;3465;42.144;24.722;2023-04-08T08:50:42;147748.84;;;19.31;56.48
6853;BME280;3465;42.144;24.722;2023-04-08T08:53:07;147547.00;;;18.50;57.60
6853;BME280;3465;42.144;24.722;2023-04-08T08:55:34;147666.78;;;18.98;56.98
6853;BME280;3465;42.144;24.722;2023-04-08T08:58:00;147655.44;;;18.94;55.66
6853;BME280;3465;42.144;24.722;2023-04-08T09:00:39;147637.81;;;18.87;56.06
6853;BME280;3465;42.144;24.722;2023-04-08T09:03:19;147646.63;;;18.90;55.42
6853;BME280;3465;42.144;24.722;2023-04-08T09:05:55;147635.28;;;18.86;55.83
6853;BME280;3465;42.144;24.722;2023-04-08T09:08:31;147404.53;;;17.94;58.63
6853;BME280;3465;42.144;24.722;2023-04-08T09:11:16;147351.59;;;17.73;58.06
6853;BME280;3465;42.144;24.722;2023-04-08T09:13:43;147006.50;;;16.35;60.83
6853;BME280;3465;42.144;24.722;2023-04-08T09:16:10;146928.47;;;16.04;63.73
6853;BME280;3465;42.144;24.722;2023-04-08T09:18:37;146909.59;;;15.97;62.94
6853;BME280;3465;42.144;24.722;2023-04-08T09:21:04;146883.22;;;15.86;62.93
6853;BME280;3465;42.144;24.722;2023-04-08T09:23:50;146827.81;;;15.64;61.63
6853;BME280;3465;42.144;24.722;2023-04-08T09:26:20;146680.69;;;15.05;60.53
6853;BME280;3465;42.144;24.722;2023-04-08T09:29:01;146688.22;;;15.08;63.51
6853;BME280;3465;42.144;24.722;2023-04-08T09:31:32;146832.88;;;15.66;63.00
6853;BME280;3465;42.144;24.722;2023-04-08T09:33:59;146720.91;;;15.21;64.13
6853;BME280;3465;42.144;24.722;2023-04-08T09:36:26;146700.78;;;15.13;65.37
6853;BME280;3465;42.144;24.722;2023-04-08T09:38:53;146874.41;;;15.83;64.11
6853;BME280;3465;42.144;24.722;2023-04-08T09:41:26;146946.09;;;16.11;62.70
6853;BME280;3465;42.144;24.722;2023-04-08T09:43:53;147051.88;;;16.53;61.57
6853;BME280;3465;42.144;24.722;2023-04-08T09:46:25;147194.16;;;17.10;59.75
6853;BME280;3465;42.144;24.722;2023-04-08T09:49:37;147418.41;;;17.99;57.62
6853;BME280;3465;42.144;24.722;2023-04-08T09:55:02;147573.47;;;18.61;54.44
6853;BME280;3465;42.144;24.722;2023-04-08T10:00:07;146982.59;;;16.26;60.22
6853;BME280;3465;42.144;24.722;2023-04-08T10:02:43;147113.56;;;16.78;59.19
6853;BME280;3465;42.144;24.722;2023-04-08T10:05:12;147325.16;;;17.62;56.72
6853;BME280;3465;42.144;24.722;2023-04-08T10:07:38;147458.75;;;18.15;54.21
6853;BME280;3465;42.144;24.722;2023-04-08T10:10:04;147652.94;;;18.93;52.42
6853;BME280;3465;42.144;24.722;2023-04-08T10:12:31;147554.56;;;18.53;51.54
6853;BME280;3465;42.144;24.722;2023-04-08T10:15:22;147688.25;;;19.07;52.17
6853;BME280;3465;42.144;24.722;2023-04-08T10:17:52;147587.38;;;18.67;53.18
6853;BME280;3465;42.144;24.722;2023-04-08T10:23:10;147509.13;;;18.35;54.20
6853;BME280;3465;42.144;24.722;2023-04-08T10:25:47;147565.91;;;18.58;53.67
6853;BME280;3465;42.144;24.722;2023-04-08T10:30:45;147645.38;;;18.90;52.32
6853;BME280;3465;42.144;24.722;2023-04-08T10:33:30;147511.69;;;18.36;54.32
6853;BME280;3465;42.144;24.722;2023-04-08T10:38:38;147272.19;;;17.41;57.74
6853;BME280;3465;42.144;24.722;2023-04-08T10:41:04;147533.13;;;18.45;56.60
6853;BME280;3465;42.144;24.722;2023-04-08T10:43:33;147736.16;;;19.26;52.87
6853;BME280;3465;42.144;24.722;2023-04-08T10:46:01;147828.31;;;19.62;50.67
6853;BME280;3465;42.144;24.722;2023-04-08T10:48:26;147644.09;;;18.89;52.81
6853;BME280;3465;42.144;24.722;2023-04-08T10:51:03;147591.13;;;18.68;53.44
6853;BME280;3465;42.144;24.722;2023-04-08T10:53:33;147436.06;;;18.06;54.30
6853;BME280;3465;42.144;24.722;2023-04-08T10:56:16;147456.22;;;18.14;55.49
6853;BME280;3465;42.144;24.722;2023-04-08T10:58:53;147384.34;;;17.86;56.05
6853;BME280;3465;42.144;24.722;2023-04-08T11:01:21;147467.56;;;18.19;55.52
6853;BME280;3465;42.144;24.722;2023-04-08T11:03:47;147564.69;;;18.58;53.33
6853;BME280;3465;42.144;24.722;2023-04-08T11:06:13;147497.78;;;18.31;53.68
6853;BME280;3465;42.144;24.722;2023-04-08T11:08:39;147404.53;;;17.94;55.58
6853;BME280;3465;42.144;24.722;2023-04-08T11:11:05;147344.03;;;17.70;57.25
6853;BME280;3465;42.144;24.722;2023-04-08T11:13:45;147330.22;;;17.64;56.21
6853;BME280;3465;42.144;24.722;2023-04-08T11:16:11;147226.84;;;17.23;57.48
6853;BME280;3465;42.144;24.722;2023-04-08T11:18:37;147351.59;;;17.73;57.78
6853;BME280;3465;42.144;24.722;2023-04-08T11:21:08;147409.56;;;17.96;56.32
6853;BME280;3465;42.144;24.722;2023-04-08T11:23:35;147444.84;;;18.10;56.16
6853;BME280;3465;42.144;24.722;2023-04-08T11:26:00;147366.75;;;17.79;56.06
6853;BME280;3465;42.144;24.722;2023-04-08T11:28:26;147330.22;;;17.64;57.46
6853;BME280;3465;42.144;24.722;2023-04-08T11:30:53;147231.91;;;17.25;57.98
6853;BME280;3465;42.144;24.722;2023-04-08T11:33:19;147148.81;;;16.92;59.78
6853;BME280;3465;42.144;24.722;2023-04-08T11:35:45;147103.47;;;16.74;59.73
6853;BME280;3465;42.144;24.722;2023-04-08T11:38:10;147240.72;;;17.29;58.29
6853;BME280;3465;42.144;24.722;2023-04-08T11:40:37;147313.84;;;17.58;57.94
6853;BME280;3465;42.144;24.722;2023-04-08T11:43:10;147340.28;;;17.68;57.45
6853;BME280;3465;42.144;24.722;2023-04-08T11:45:39;147552.06;;;18.52;55.63
6853;BME280;3465;42.144;24.722;2023-04-08T11:48:11;147686.97;;;19.06;53.97
6853;BME280;3465;42.144;24.722;2023-04-08T11:50:38;147816.97;;;19.58;51.22
6853;BME280;3465;42.144;24.722;2023-04-08T11:53:17;147398.25;;;17.91;54.45
6853;BME280;3465;42.144;24.722;2023-04-08T11:55:47;147350.38;;;17.72;56.24
6853;BME280;3465;42.144;24.722;2023-04-08T11:58:13;147176.50;;;17.03;58.51
6853;BME280;3465;42.144;24.722;2023-04-08T12:00:39;147142.47;;;16.89;59.63
6853;BME280;3465;42.144;24.722;2023-04-08T12:03:05;147131.16;;;16.85;60.47
6853;BME280;3465;42.144;24.722;2023-04-08T12:05:31;147155.06;;;16.94;59.94
6853;BME280;3465;42.144;24.722;2023-04-08T12:07:56;147085.81;;;16.67;61.42
6853;BME280;3465;42.144;24.722;2023-04-08T12:10:22;147252.06;;;17.33;59.40
6853;BME280;3465;42.144;24.722;2023-04-08T12:12:49;147451.19;;;18.12;57.82
6853;BME280;3465;42.144;24.722;2023-04-08T12:15:14;147505.34;;;18.34;55.74
6853;BME280;3465;42.144;24.722;2023-04-08T12:17:40;147389.41;;;17.88;57.63
6853;BME280;3465;42.144;24.722;2023-04-08T12:20:06;147326.44;;;17.63;57.62
6853;BME280;3465;42.144;24.722;2023-04-08T12:22:32;147315.09;;;17.58;58.57
6853;BME280;3465;42.144;24.722;2023-04-08T12:24:57;147436.06;;;18.06;58.14
6853;BME280;3465;42.144;24.722;2023-04-08T12:27:22;147163.91;;;16.98;60.03
6853;BME280;3465;42.144;24.722;2023-04-08T12:29:48;147113.56;;;16.78;61.71
6853;BME280;3465;42.144;24.722;2023-04-08T12:32:14;147166.41;;;16.99;61.67
6853;BME280;3465;42.144;24.722;2023-04-08T12:34:40;147242.00;;;17.29;61.33
6853;BME280;3465;42.144;24.722;2023-04-08T12:37:05;147250.78;;;17.33;60.47
6853;BME280;3465;42.144;24.722;2023-04-08T12:39:30;147322.66;;;17.61;59.64
6853;BME280;3465;42.144;24.722;2023-04-08T12:41:56;147349.09;;;17.72;58.64
6853;BME280;3465;42.144;24.722;2023-04-08T12:44:21;147378.09;;;17.83;59.51
6853;BME280;3465;42.144;24.722;2023-04-08T12:46:47;147383.13;;;17.85;57.95
6853;BME280;3465;42.144;24.722;2023-04-08T12:49:12;147375.59;;;17.82;57.56
6853;BME280;3465;42.144;24.722;2023-04-08T12:51:37;147390.69;;;17.88;58.62
6853;BME280;3465;42.144;24.722;2023-04-08T12:54:04;147457.47;;;18.15;57.93
6853;BME280;3465;42.144;24.722;2023-04-08T12:56:30;147567.19;;;18.59;56.48
6853;BME280;3465;42.144;24.722;2023-04-08T12:58:56;147510.41;;;18.36;56.70
6853;BME280;3465;42.144;24.722;2023-04-08T13:01:22;147470.06;;;18.20;56.86
6853;BME280;3465;42.144;24.722;2023-04-08T13:03:47;147362.97;;;17.77;58.61
6853;BME280;3465;42.144;24.722;2023-04-08T13:06:13;147352.88;;;17.73;58.39
6853;BME280;3465;42.144;24.722;2023-04-08T13:08:39;147342.81;;;17.69;59.53
6853;BME280;3465;42.144;24.722;2023-04-08T13:11:06;147336.50;;;17.67;59.64
6853;BME280;3465;42.144;24.722;2023-04-08T13:13:32;147284.84;;;17.46;59.84
6853;BME280;3465;42.144;24.722;2023-04-08T13:15:57;147305.00;;;17.54;59.45
6853;BME280;3465;42.144;24.722;2023-04-08T13:18:23;147305.00;;;17.54;59.06